createdAt,value
2022-11-20T18:32:15.580Z,99395.90
2022-11-20T18:42:32.666Z,99384.27
2022-11-20T18:50:31.043Z,99325.42
2022-11-20T18:55:34.143Z,99335.85
2022-11-20T19:00:37.154Z,99342.67
2022-11-20T19:05:40.470Z,99351.05
2022-11-20T19:10:43.579Z,99353.86
2022-11-20T19:15:46.683Z,99360.77
2022-11-20T19:20:49.795Z,99359.83
2022-11-20T19:25:53.008Z,99349.69
2022-11-20T19:30:56.117Z,99348.90
2022-11-20T19:36:09.153Z,99348.76
2022-11-20T19:41:12.363Z,99349.55
2022-11-20T19:46:20.638Z,99346.10
2022-11-20T19:51:26.725Z,99347.73
2022-11-20T19:56:31.632Z,99346.45
2022-11-20T20:01:35.617Z,99344.34
2022-11-20T20:06:40.199Z,99342.75
2022-11-20T20:11:46.758Z,99346.46
2022-11-20T20:16:49.793Z,99348.54
2022-11-20T20:21:52.786Z,99347.83
2022-11-20T20:26:58.305Z,99347.33
2022-11-20T20:32:01.888Z,99348.87
2022-11-20T20:37:05.513Z,99346.45
2022-11-20T20:42:08.409Z,99351.43
2022-11-20T20:47:11.412Z,99353.11
2022-11-20T20:52:15.252Z,99357.39
2022-11-20T20:57:18.346Z,99356.17
2022-11-20T21:02:22.711Z,99355.99
2022-11-20T21:07:26.235Z,99354.79
2022-11-20T21:12:29.329Z,99354.09
2022-11-20T21:17:32.428Z,99361.09
2022-11-20T21:22:36.557Z,99362.49
2022-11-20T21:27:39.706Z,99359.60
2022-11-20T21:32:42.626Z,99357.02
2022-11-20T21:37:45.576Z,99345.33
2022-11-20T21:42:48.682Z,99343.58
2022-11-20T21:47:52.407Z,99338.23
2022-11-20T21:52:55.418Z,99336.52
2022-11-20T21:57:58.318Z,99331.71
2022-11-20T22:03:01.225Z,99331.88
2022-11-20T22:08:04.330Z,99334.25
2022-11-20T22:13:25.697Z,99332.30
2022-11-20T22:18:28.781Z,99330.70
2022-11-20T22:23:31.992Z,99326.37
2022-11-20T22:28:36.183Z,99325.79
2022-11-20T22:33:39.333Z,99322.15
2022-11-20T22:38:42.745Z,99320.02
2022-11-20T22:43:46.428Z,99316.92
2022-11-20T22:48:50.706Z,99312.42
2022-11-20T22:53:54.018Z,99305.35
2022-11-20T22:58:57.129Z,99299.80
2022-11-20T23:04:02.326Z,99300.66
2022-11-20T23:09:06.519Z,99301.95
2022-11-20T23:14:16.191Z,99299.86
2022-11-20T23:19:19.398Z,99303.23
2022-11-20T23:24:22.398Z,99304.08
2022-11-20T23:29:25.598Z,99309.08
2022-11-20T23:34:28.724Z,99310.89
2022-11-20T23:39:31.851Z,99313.66
2022-11-20T23:44:35.039Z,99308.01
2022-11-20T23:49:38.045Z,99305.11
2022-11-20T23:54:40.949Z,99302.54
2022-11-20T23:59:43.856Z,99294.23
